Time;durP1;ratioP1;P1;durP2;ratioP2;P2;SDS_P1;SDS_P2;PMS_P1;PMS_P2;Temp;Humidity;BMP_temperature;BMP_pressure;BME280_temperature;BME280_humidity;BME280_pressure;Samples;Min_cycle;Max_cycle;Signal;HPM_P1;HPM_P2
2023/08/16 00:00:58;;;;;;;29.35;4.35;;;;;;;;;;5095660;28;20047;-57
2023/08/16 00:03:24;;;;;;;14.30;5.18;;;;;;;;;;5094984;28;20044;-57
2023/08/16 00:05:50;;;;;;;19.70;5.72;;;;;;;;;;5092445;28;20128;-57
2023/08/16 00:08:16;;;;;;;13.75;5.63;;;;;;;;;;5092125;28;20154;-57
2023/08/16 00:10:42;;;;;;;16.33;4.03;;;;;;;;;;5104911;28;20126;-57
2023/08/16 00:13:09;;;;;;;21.65;4.13;;;;;;;;;;5081552;28;20999;-57
2023/08/16 00:15:35;;;;;;;37.60;4.50;;;;;;;;;;5083363;28;20126;-57
2023/08/16 00:18:01;;;;;;;14.77;3.35;;;;;;;;;;5081655;28;20470;-57
2023/08/16 00:20:29;;;;;;;26.52;2.75;;;;;;;;;;5084575;28;20097;-57
2023/08/16 00:22:55;;;;;;;17.98;3.17;;;;;;;;;;5094421;28;20443;-57
2023/08/16 00:25:21;;;;;;;33.33;3.60;;;;;;;;;;5083194;28;20036;-57
2023/08/16 00:27:48;;;;;;;20.38;4.13;;;;;;;;;;5084365;28;20483;-57
2023/08/16 00:30:14;;;;;;;7.22;3.00;;;;;;;;;;5087106;28;20064;-56
2023/08/16 00:32:41;;;;;;;8.55;2.65;;;;;;;;;;5088043;28;20075;-57
2023/08/16 00:35:07;;;;;;;33.50;2.58;;;;;;;;;;5083959;28;20032;-57
2023/08/16 00:37:33;;;;;;;11.63;2.13;;;;;;;;;;5090795;28;20131;-57
2023/08/16 00:39:59;;;;;;;40.47;3.13;;;;;;;;;;5090266;28;20036;-57
2023/08/16 00:42:26;;;;;;;19.92;2.92;;;;;;;;;;5104911;28;20047;-57
2023/08/16 00:44:52;;;;;;;11.88;2.42;;;;;;;;;;5095481;28;20420;-57
2023/08/16 00:47:18;;;;;;;18.33;2.20;;;;;;;;;;5089234;28;20071;-56
2023/08/16 00:49:44;;;;;;;20.88;2.22;;;;;;;;;;5107915;28;20083;-57
2023/08/16 00:52:10;;;;;;;55.63;3.72;;;;;;;;;;5101771;28;20062;-57
2023/08/16 00:54:37;;;;;;;43.67;4.10;;;;;;;;;;5099621;28;20072;-57
2023/08/16 00:57:03;;;;;;;53.00;5.03;;;;;;;;;;5094098;28;20044;-57
2023/08/16 00:59:30;;;;;;;27.25;2.47;;;;;;;;;;5095708;28;20039;-57
2023/08/16 01:01:56;;;;;;;20.25;2.78;;;;;;;;;;5091469;28;20055;-56
2023/08/16 01:04:23;;;;;;;17.20;2.25;;;;;;;;;;5097996;28;20032;-57
2023/08/16 01:06:49;;;;;;;12.25;1.92;;;;;;;;;;5079657;28;20078;-56
2023/08/16 01:09:15;;;;;;;5.18;1.65;;;;;;;;;;5084022;28;20040;-57
2023/08/16 01:11:45;;;;;;;21.33;2.65;;;;;;;;;;5096656;28;20044;-57
2023/08/16 01:14:17;;;;;;;54.83;2.80;;;;;;;;;;5109047;28;20127;-56
2023/08/16 01:16:45;;;;;;;56.13;3.40;;;;;;;;;;5094015;28;20055;-56
2023/08/16 01:19:14;;;;;;;50.10;3.40;;;;;;;;;;5091964;28;20377;-57
2023/08/16 01:21:43;;;;;;;22.83;2.42;;;;;;;;;;5094053;28;20407;-57
2023/08/16 01:24:17;;;;;;;21.85;2.72;;;;;;;;;;5099536;28;20496;-57
2023/08/16 01:26:43;;;;;;;;;;;;;;;;;;5087070;28;20134;-57
2023/08/16 01:29:10;;;;;;;8.10;2.00;;;;;;;;;;5096434;28;19926;-57
2023/08/16 01:31:36;;;;;;;16.38;2.40;;;;;;;;;;5098559;28;20500;-57
2023/08/16 01:34:02;;;;;;;7.53;2.33;;;;;;;;;;5087814;28;20078;-57
2023/08/16 01:36:28;;;;;;;4.47;2.20;;;;;;;;;;5097819;28;20055;-57
2023/08/16 01:38:56;;;;;;;3.53;2.30;;;;;;;;;;5096560;28;20085;-57
2023/08/16 01:41:31;;;;;;;3.20;2.10;;;;;;;;;;5104402;28;20639;-57
2023/08/16 01:43:57;;;;;;;6.40;2.30;;;;;;;;;;5107058;28;20055;-57
2023/08/16 01:46:23;;;;;;;3.50;2.40;;;;;;;;;;5089076;28;20132;-57
2023/08/16 01:48:50;;;;;;;5.45;2.20;;;;;;;;;;5098208;28;20514;-57
2023/08/16 01:51:17;;;;;;;5.07;3.22;;;;;;;;;;5102307;28;20114;-57
2023/08/16 01:53:43;;;;;;;4.05;3.15;;;;;;;;;;5107767;28;20052;-57
2023/08/16 01:56:09;;;;;;;6.15;3.38;;;;;;;;;;5090521;28;20046;-57
2023/08/16 01:58:36;;;;;;;7.88;3.25;;;;;;;;;;5092348;28;20043;-57
2023/08/16 02:01:02;;;;;;;4.18;2.90;;;;;;;;;;5092654;28;20162;-57
2023/08/16 02:03:28;;;;;;;4.47;3.10;;;;;;;;;;5084540;28;20467;-57
2023/08/16 02:05:54;;;;;;;3.88;2.90;;;;;;;;;;5088837;28;20056;-57
2023/08/16 02:08:20;;;;;;;7.38;2.95;;;;;;;;;;5093524;28;20535;-57
2023/08/16 02:10:46;;;;;;;4.50;2.40;;;;;;;;;;5096773;28;20036;-57
2023/08/16 02:13:13;;;;;;;4.53;1.98;;;;;;;;;;5089349;28;20529;-57
2023/08/16 02:15:39;;;;;;;3.20;2.10;;;;;;;;;;5101167;28;20036;-57
2023/08/16 02:18:10;;;;;;;3.10;2.13;;;;;;;;;;5099180;28;20449;-57
2023/08/16 02:20:38;;;;;;;3.50;2.30;;;;;;;;;;5094681;28;20122;-56
2023/08/16 02:23:05;;;;;;;5.05;2.10;;;;;;;;;;5083328;28;20063;-57
2023/08/16 02:25:31;;;;;;;2.85;1.98;;;;;;;;;;5085360;28;20032;-57
2023/08/16 02:27:57;;;;;;;3.00;1.92;;;;;;;;;;5097885;28;20429;-56
2023/08/16 02:30:24;;;;;;;5.07;2.22;;;;;;;;;;5099666;28;20131;-56
2023/08/16 02:32:50;;;;;;;2.67;1.70;;;;;;;;;;5081187;28;20052;-57
2023/08/16 02:35:16;;;;;;;17.70;1.50;;;;;;;;;;5082355;28;20442;-57
2023/08/16 02:37:43;;;;;;;9.02;1.77;;;;;;;;;;5092757;28;20155;-57
2023/08/16 02:40:09;;;;;;;7.75;1.42;;;;;;;;;;5081496;28;20057;-56
2023/08/16 02:42:35;;;;;;;29.08;2.08;;;;;;;;;;5086163;28;20392;-57
2023/08/16 02:45:01;;;;;;;21.52;2.15;;;;;;;;;;5085799;28;20042;-57
2023/08/16 02:47:28;;;;;;;41.08;2.28;;;;;;;;;;5095533;28;20514;-57
2023/08/16 02:49:54;;;;;;;23.95;2.47;;;;;;;;;;5112324;28;20062;-57
2023/08/16 02:52:20;;;;;;;27.77;2.55;;;;;;;;;;5091455;28;20077;-56
2023/08/16 02:54:46;;;;;;;16.85;2.50;;;;;;;;;;5084902;28;20040;-56
2023/08/16 02:57:13;;;;;;;16.70;1.95;;;;;;;;;;5089059;28;20036;-56
2023/08/16 02:59:40;;;;;;;11.38;2.20;;;;;;;;;;5090132;28;20048;-57
2023/08/16 03:02:07;;;;;;;7.07;2.13;;;;;;;;;;5095251;28;20449;-57
2023/08/16 03:04:33;;;;;;;4.10;2.08;;;;;;;;;;5096516;28;20143;-57
2023/08/16 03:06:59;;;;;;;3.20;1.65;;;;;;;;;;5089403;28;20051;-57
2023/08/16 03:09:25;;;;;;;3.75;2.22;;;;;;;;;;5098813;28;20126;-57
2023/08/16 03:11:51;;;;;;;4.28;2.00;;;;;;;;;;5106340;27;20044;-57
2023/08/16 03:14:18;;;;;;;3.35;2.05;;;;;;;;;;5098105;28;20515;-57
2023/08/16 03:16:44;;;;;;;3.47;1.42;;;;;;;;;;5097147;28;20130;-57
2023/08/16 03:19:10;;;;;;;2.25;1.33;;;;;;;;;;5111417;28;20036;-57
2023/08/16 03:21:37;;;;;;;2.17;0.80;;;;;;;;;;5096823;28;20089;-57
2023/08/16 03:24:03;;;;;;;2.00;1.05;;;;;;;;;;5099487;28;20408;-57
2023/08/16 03:26:29;;;;;;;1.98;1.10;;;;;;;;;;5104185;28;20497;-57
2023/08/16 03:28:55;;;;;;;2.90;1.50;;;;;;;;;;5097563;28;20051;-57
2023/08/16 03:31:22;;;;;;;3.08;1.60;;;;;;;;;;5103196;28;20372;-57
2023/08/16 03:33:48;;;;;;;3.03;1.45;;;;;;;;;;5094617;28;20052;-57
2023/08/16 03:36:15;;;;;;;2.92;1.27;;;;;;;;;;5095709;28;20467;-56
2023/08/16 03:38:41;;;;;;;2.45;1.42;;;;;;;;;;5100523;28;20115;-57
2023/08/16 03:41:07;;;;;;;2.88;1.63;;;;;;;;;;5098370;28;20047;-56
2023/08/16 03:43:37;;;;;;;4.50;1.60;;;;;;;;;;5097577;28;20036;-57
2023/08/16 03:46:07;;;;;;;4.00;1.63;;;;;;;;;;5101777;28;20040;-57
2023/08/16 03:48:33;;;;;;;2.58;1.48;;;;;;;;;;5104041;28;20044;-57
2023/08/16 03:50:59;;;;;;;4.00;1.60;;;;;;;;;;5098815;28;20087;-57
2023/08/16 03:53:25;;;;;;;2.28;1.20;;;;;;;;;;5093150;28;20028;-57
2023/08/16 03:55:58;;;;;;;2.83;1.35;;;;;;;;;;5097053;28;20403;-57
2023/08/16 03:58:25;;;;;;;6.93;2.00;;;;;;;;;;5089879;28;20064;-57
2023/08/16 04:00:52;;;;;;;3.70;2.00;;;;;;;;;;5095704;28;20065;-57
2023/08/16 04:03:18;;;;;;;5.55;1.95;;;;;;;;;;5089382;28;20048;-57
2023/08/16 04:05:45;;;;;;;3.63;1.65;;;;;;;;;;5094917;27;20116;-56
2023/08/16 04:08:11;;;;;;;2.47;1.30;;;;;;;;;;5083784;28;20040;-56
2023/08/16 04:10:37;;;;;;;1.83;1.08;;;;;;;;;;5097666;28;20047;-57
2023/08/16 04:13:04;;;;;;;2.67;0.88;;;;;;;;;;5093561;28;20043;-57
2023/08/16 04:15:30;;;;;;;32.15;3.00;;;;;;;;;;5098640;28;20036;-57
2023/08/16 04:17:57;;;;;;;24.30;1.98;;;;;;;;;;5084744;28;20084;-56
2023/08/16 04:20:23;;;;;;;16.27;1.70;;;;;;;;;;5083428;28;20055;-56
2023/08/16 04:22:50;;;;;;;7.95;1.38;;;;;;;;;;5083591;28;20054;-57
2023/08/16 04:25:16;;;;;;;22.63;2.22;;;;;;;;;;5099657;28;20047;-57
2023/08/16 04:27:43;;;;;;;10.60;2.15;;;;;;;;;;5083943;28;20040;-57
2023/08/16 04:30:10;;;;;;;9.15;1.80;;;;;;;;;;5082944;28;20483;-57
2023/08/16 04:32:36;;;;;;;4.43;2.72;;;;;;;;;;5086416;28;20059;-57
2023/08/16 04:35:03;;;;;;;13.75;3.28;;;;;;;;;;5083249;28;21676;-56
2023/08/16 04:37:29;;;;;;;19.25;2.70;;;;;;;;;;5083378;28;20109;-56
2023/08/16 04:39:55;;;;;;;21.63;3.40;;;;;;;;;;5087294;28;20044;-57
2023/08/16 04:42:21;;;;;;;19.15;3.17;;;;;;;;;;5084770;28;20058;-57
2023/08/16 04:44:48;;;;;;;7.13;2.42;;;;;;;;;;5096190;28;20055;-56
2023/08/16 04:47:15;;;;;;;13.63;2.70;;;;;;;;;;5091583;28;20492;-57
2023/08/16 04:49:41;;;;;;;12.73;2.30;;;;;;;;;;5103128;28;20082;-58
2023/08/16 04:52:07;;;;;;;14.38;2.67;;;;;;;;;;5100290;28;20122;-58
2023/08/16 04:54:33;;;;;;;14.07;2.10;;;;;;;;;;5102734;28;20472;-58
2023/08/16 04:57:00;;;;;;;6.75;2.20;;;;;;;;;;5101970;28;20127;-58
2023/08/16 04:59:26;;;;;;;12.23;1.70;;;;;;;;;;5103441;28;20083;-58
2023/08/16 05:01:52;;;;;;;4.93;2.13;;;;;;;;;;5098357;28;20613;-58
2023/08/16 05:04:18;;;;;;;6.00;1.90;;;;;;;;;;5111077;28;20044;-58
2023/08/16 05:06:44;;;;;;;3.63;1.75;;;;;;;;;;5103020;28;20048;-58
2023/08/16 05:09:11;;;;;;;2.65;1.65;;;;;;;;;;5098290;28;20188;-58
2023/08/16 05:11:37;;;;;;;2.90;1.90;;;;;;;;;;5111508;28;20040;-58
2023/08/16 05:14:03;;;;;;;3.97;1.67;;;;;;;;;;5102096;28;20588;-58
2023/08/16 05:16:31;;;;;;;2.92;1.88;;;;;;;;;;5103685;28;20036;-58
2023/08/16 05:18:57;;;;;;;3.45;2.22;;;;;;;;;;5090795;28;20113;-58
2023/08/16 05:21:24;;;;;;;4.20;2.22;;;;;;;;;;5097637;28;20055;-58
2023/08/16 05:23:50;;;;;;;4.20;2.25;;;;;;;;;;5110563;28;20483;-58
2023/08/16 05:26:16;;;;;;;3.50;1.67;;;;;;;;;;5099531;28;20126;-58
2023/08/16 05:28:42;;;;;;;3.78;2.20;;;;;;;;;;5095403;28;20375;-58
2023/08/16 05:31:11;;;;;;;4.72;2.15;;;;;;;;;;5107131;28;20044;-58
2023/08/16 05:33:38;;;;;;;3.67;2.40;;;;;;;;;;5107652;28;20088;-57
2023/08/16 05:36:05;;;;;;;4.18;2.20;;;;;;;;;;5096540;28;20032;-57
2023/08/16 05:38:31;;;;;;;4.10;2.60;;;;;;;;;;5090326;28;20052;-58
2023/08/16 05:40:58;;;;;;;5.20;2.60;;;;;;;;;;5092518;28;20046;-57
2023/08/16 05:43:24;;;;;;;3.80;2.50;;;;;;;;;;5110351;28;20047;-58
2023/08/16 05:45:50;;;;;;;4.13;2.45;;;;;;;;;;5108010;28;20588;-58
2023/08/16 05:48:17;;;;;;;4.15;2.83;;;;;;;;;;5084276;28;20047;-58
2023/08/16 05:50:43;;;;;;;4.43;2.88;;;;;;;;;;5094734;28;20043;-66
2023/08/16 05:53:09;;;;;;;3.85;2.67;;;;;;;;;;5109167;28;20181;-57
2023/08/16 05:55:36;;;;;;;6.28;3.05;;;;;;;;;;5103275;28;20109;-57
2023/08/16 05:58:02;;;;;;;4.47;3.50;;;;;;;;;;5093893;28;20092;-57
2023/08/16 06:00:29;;;;;;;5.53;3.30;;;;;;;;;;5104802;28;20035;-58
2023/08/16 06:02:55;;;;;;;4.50;3.53;;;;;;;;;;5102257;28;20374;-57
2023/08/16 06:05:21;;;;;;;4.88;3.63;;;;;;;;;;5105507;28;20122;-58
2023/08/16 06:07:48;;;;;;;7.78;4.05;;;;;;;;;;5097114;28;20044;-57
2023/08/16 06:10:14;;;;;;;4.63;3.90;;;;;;;;;;5093175;28;20044;-57
2023/08/16 06:12:40;;;;;;;7.90;5.60;;;;;;;;;;5098802;28;20097;-57
2023/08/16 06:15:11;;;;;;;7.63;5.72;;;;;;;;;;5098400;28;20051;-58
2023/08/16 06:17:40;;;;;;;10.35;6.32;;;;;;;;;;5097113;28;20044;-57
2023/08/16 06:20:07;;;;;;;10.00;6.78;;;;;;;;;;5090516;28;20036;-56
2023/08/16 06:22:39;;;;;;;11.52;6.45;;;;;;;;;;5096691;28;20051;-57
2023/08/16 06:25:06;;;;;;;11.65;7.38;;;;;;;;;;5094940;28;20203;-57
2023/08/16 06:27:33;;;;;;;12.80;7.60;;;;;;;;;;5092683;28;20508;-57
2023/08/16 06:29:59;;;;;;;10.48;7.38;;;;;;;;;;5101105;28;20183;-57
2023/08/16 06:32:26;;;;;;;10.82;7.75;;;;;;;;;;5113784;28;20916;-57
2023/08/16 06:34:52;;;;;;;10.60;8.25;;;;;;;;;;5101677;28;20047;-57
2023/08/16 06:37:18;;;;;;;10.68;8.50;;;;;;;;;;5106005;28;20066;-58
2023/08/16 06:39:44;;;;;;;14.13;9.50;;;;;;;;;;5100814;28;20035;-57
2023/08/16 06:42:11;;;;;;;17.15;9.60;;;;;;;;;;5111435;28;20043;-58
2023/08/16 06:44:37;;;;;;;15.38;9.77;;;;;;;;;;5106704;28;20088;-57
2023/08/16 06:47:03;;;;;;;14.32;9.77;;;;;;;;;;5113277;28;20043;-57
2023/08/16 06:49:30;;;;;;;16.52;10.13;;;;;;;;;;5099558;28;20135;-57
2023/08/16 06:51:56;;;;;;;14.77;9.45;;;;;;;;;;5110121;28;20047;-57
2023/08/16 06:54:23;;;;;;;13.25;9.30;;;;;;;;;;5110424;27;20440;-57
2023/08/16 06:56:49;;;;;;;21.13;15.18;;;;;;;;;;5113918;28;20036;-57
2023/08/16 06:59:15;;;;;;;14.82;10.60;;;;;;;;;;5103547;28;20032;-57
2023/08/16 07:01:42;;;;;;;14.75;8.63;;;;;;;;;;5105478;28;20126;-57
2023/08/16 07:04:08;;;;;;;16.95;8.77;;;;;;;;;;5101190;28;20069;-57
2023/08/16 07:06:34;;;;;;;13.95;8.43;;;;;;;;;;5095336;28;20032;-57
2023/08/16 07:09:00;;;;;;;15.30;11.32;;;;;;;;;;5098823;28;20051;-59
2023/08/16 07:11:27;;;;;;;11.50;6.82;;;;;;;;;;5096435;28;20072;-57
2023/08/16 07:13:53;;;;;;;13.05;6.25;;;;;;;;;;5108575;28;20048;-57
2023/08/16 07:16:19;;;;;;;12.30;6.65;;;;;;;;;;5112807;28;20082;-57
2023/08/16 07:18:45;;;;;;;12.63;6.60;;;;;;;;;;5107540;28;20105;-57
2023/08/16 07:21:12;;;;;;;11.50;5.93;;;;;;;;;;5107016;28;20036;-57
2023/08/16 07:23:38;;;;;;;10.77;5.68;;;;;;;;;;5101512;28;20135;-57
2023/08/16 07:26:04;;;;;;;14.45;5.10;;;;;;;;;;5113032;28;20047;-57
2023/08/16 07:28:30;;;;;;;8.35;4.15;;;;;;;;;;5109548;28;20051;-57
2023/08/16 07:30:56;;;;;;;10.40;4.18;;;;;;;;;;5091951;28;20055;-57
2023/08/16 07:33:23;;;;;;;8.00;3.72;;;;;;;;;;5098488;28;20059;-57
2023/08/16 07:35:50;;;;;;;12.82;3.60;;;;;;;;;;5105836;28;20108;-57
2023/08/16 07:38:16;;;;;;;8.52;3.80;;;;;;;;;;5104448;28;20039;-57
2023/08/16 07:40:48;;;;;;;7.85;4.22;;;;;;;;;;5102949;28;20530;-59
2023/08/16 07:43:15;;;;;;;7.22;3.72;;;;;;;;;;5102793;28;20058;-58
2023/08/16 07:45:41;;;;;;;7.40;3.55;;;;;;;;;;5113252;28;20069;-58
2023/08/16 07:48:07;;;;;;;7.75;3.92;;;;;;;;;;5104117;27;20047;-58
2023/08/16 07:50:34;;;;;;;8.10;4.25;;;;;;;;;;5089894;28;20086;-58
2023/08/16 07:53:00;;;;;;;10.45;3.72;;;;;;;;;;5104424;28;20143;-58
2023/08/16 07:55:31;;;;;;;11.18;4.22;;;;;;;;;;5109605;28;20120;-58
2023/08/16 07:57:58;;;;;;;9.90;4.35;;;;;;;;;;5096678;28;20047;-58
2023/08/16 08:00:24;;;;;;;10.75;4.20;;;;;;;;;;5094804;28;20040;-58
2023/08/16 08:02:50;;;;;;;7.30;4.30;;;;;;;;;;5099390;28;20458;-57
2023/08/16 08:05:16;;;;;;;6.75;3.20;;;;;;;;;;5096313;28;20135;-59
2023/08/16 08:07:43;;;;;;;11.75;4.68;;;;;;;;;;5111104;28;20048;-58
2023/08/16 08:10:10;;;;;;;5.53;2.33;;;;;;;;;;5098563;28;20165;-58
2023/08/16 08:12:36;;;;;;;9.60;2.92;;;;;;;;;;5109252;28;20074;-58
2023/08/16 08:15:02;;;;;;;7.63;3.08;;;;;;;;;;5094254;28;20151;-59
2023/08/16 08:17:28;;;;;;;7.63;2.80;;;;;;;;;;5108717;28;20040;-58
2023/08/16 08:19:54;;;;;;;7.20;3.20;;;;;;;;;;5099994;28;20115;-58
2023/08/16 08:22:21;;;;;;;8.55;2.80;;;;;;;;;;5106466;28;20048;-58
2023/08/16 08:24:47;;;;;;;5.82;2.08;;;;;;;;;;5099985;28;20486;-59
2023/08/16 08:27:13;;;;;;;5.93;1.83;;;;;;;;;;5106019;28;20040;-59
2023/08/16 08:29:40;;;;;;;6.25;2.00;;;;;;;;;;5099106;28;20454;-58
2023/08/16 08:32:06;;;;;;;5.97;2.28;;;;;;;;;;5098153;28;20051;-58
2023/08/16 08:34:33;;;;;;;6.93;2.50;;;;;;;;;;5099040;28;20058;-59
2023/08/16 08:37:00;;;;;;;5.78;2.35;;;;;;;;;;5101798;28;20074;-58
2023/08/16 08:39:28;;;;;;;5.65;2.17;;;;;;;;;;5102014;28;20110;-59
2023/08/16 08:41:55;;;;;;;6.03;2.47;;;;;;;;;;5112017;28;20065;-59
2023/08/16 08:44:22;;;;;;;6.00;3.00;;;;;;;;;;5108550;28;20150;-58
2023/08/16 08:46:49;;;;;;;7.40;2.53;;;;;;;;;;5111103;28;20403;-59
2023/08/16 08:49:15;;;;;;;5.20;2.53;;;;;;;;;;5101572;28;20472;-59
2023/08/16 08:51:42;;;;;;;4.05;2.00;;;;;;;;;;5101897;28;20043;-57
2023/08/16 08:54:08;;;;;;;6.70;2.20;;;;;;;;;;5110968;28;20130;-63
2023/08/16 08:56:38;;;;;;;7.28;2.67;;;;;;;;;;5109861;28;20047;-57
2023/08/16 08:59:06;;;;;;;7.07;2.45;;;;;;;;;;5106050;28;20045;-57
2023/08/16 09:01:32;;;;;;;7.03;1.92;;;;;;;;;;5094133;28;20039;-57
2023/08/16 09:04:03;;;;;;;4.55;1.95;;;;;;;;;;5099633;28;20506;-57
2023/08/16 09:06:30;;;;;;;3.05;1.90;;;;;;;;;;5111427;28;20517;-57
2023/08/16 09:08:56;;;;;;;10.50;2.72;;;;;;;;;;5107965;28;20130;-57
2023/08/16 09:11:24;;;;;;;7.25;2.00;;;;;;;;;;5105210;28;20140;-57
2023/08/16 09:13:52;;;;;;;4.72;1.80;;;;;;;;;;5099877;28;20123;-57
2023/08/16 09:16:19;;;;;;;5.78;1.77;;;;;;;;;;5111136;28;20130;-57
2023/08/16 09:18:48;;;;;;;3.67;2.03;;;;;;;;;;5110987;28;20117;-57
2023/08/16 09:21:24;;;;;;;3.35;1.80;;;;;;;;;;5101701;28;20244;-57
2023/08/16 09:23:57;;;;;;;4.10;1.58;;;;;;;;;;5095142;28;20056;-57
2023/08/16 09:26:23;;;;;;;4.85;1.85;;;;;;;;;;5096269;28;20036;-63
2023/08/16 09:28:56;;;;;;;4.93;1.52;;;;;;;;;;5088232;28;20043;-69
2023/08/16 09:31:22;;;;;;;9.07;1.80;;;;;;;;;;5091812;28;20495;-59
2023/08/16 09:33:54;;;;;;;6.18;2.08;;;;;;;;;;5094187;28;20040;-58
2023/08/16 09:36:20;;;;;;;4.22;1.70;;;;;;;;;;5098777;28;20050;-59
2023/08/16 09:38:47;;;;;;;5.78;1.70;;;;;;;;;;5107017;28;20123;-60
2023/08/16 09:41:15;;;;;;;3.88;1.45;;;;;;;;;;5108432;28;20085;-60
2023/08/16 09:43:41;;;;;;;3.17;1.27;;;;;;;;;;5110237;28;20104;-76
2023/08/16 09:46:08;;;;;;;5.75;1.63;;;;;;;;;;5104580;28;20104;-58
2023/08/16 09:48:34;;;;;;;4.43;1.42;;;;;;;;;;5111370;28;20130;-59
2023/08/16 09:51:01;;;;;;;4.25;1.38;;;;;;;;;;5103918;28;20032;-58
2023/08/16 09:53:28;;;;;;;3.90;1.45;;;;;;;;;;5115293;28;20113;-58
2023/08/16 09:55:55;;;;;;;4.53;1.30;;;;;;;;;;5107445;27;20076;-58
2023/08/16 09:58:22;;;;;;;5.32;1.67;;;;;;;;;;5113832;28;20043;-58
2023/08/16 10:00:48;;;;;;;4.30;1.52;;;;;;;;;;5099954;27;20044;-58
2023/08/16 10:03:15;;;;;;;4.18;1.50;;;;;;;;;;5104434;28;20083;-58
2023/08/16 10:05:41;;;;;;;6.25;1.70;;;;;;;;;;5100303;28;20067;-58
2023/08/16 10:08:09;;;;;;;4.80;1.58;;;;;;;;;;5095420;28;20067;-58
2023/08/16 10:10:35;;;;;;;5.80;1.50;;;;;;;;;;5093957;28;20107;-59
2023/08/16 10:13:02;;;;;;;4.53;1.30;;;;;;;;;;5104639;28;20055;-59
2023/08/16 10:15:32;;;;;;;4.65;1.40;;;;;;;;;;5108780;28;20217;-58
2023/08/16 10:18:00;;;;;;;3.70;1.20;;;;;;;;;;5099008;28;20113;-60
2023/08/16 10:20:27;;;;;;;2.72;1.17;;;;;;;;;;5112421;28;20526;-58
2023/08/16 10:22:58;;;;;;;2.85;0.98;;;;;;;;;;5107964;28;20047;-58
2023/08/16 10:25:25;;;;;;;2.90;1.10;;;;;;;;;;5113885;28;20051;-58
2023/08/16 10:27:54;;;;;;;4.07;1.10;;;;;;;;;;5100259;28;20609;-58
2023/08/16 10:30:24;;;;;;;3.35;1.10;;;;;;;;;;5099990;28;20063;-58
2023/08/16 10:33:05;;;;;;;4.85;1.40;;;;;;;;;;5099488;28;20055;-58
2023/08/16 10:35:33;;;;;;;4.60;1.08;;;;;;;;;;5105210;28;20052;-58
2023/08/16 10:37:59;;;;;;;4.18;1.27;;;;;;;;;;5108339;28;20100;-59
2023/08/16 10:40:25;;;;;;;2.95;0.90;;;;;;;;;;5096619;28;20555;-58
2023/08/16 10:42:55;;;;;;;4.47;1.42;;;;;;;;;;5100373;28;20399;-58
2023/08/16 10:45:22;;;;;;;3.30;1.00;;;;;;;;;;5098351;28;20089;-58
2023/08/16 10:47:48;;;;;;;2.88;1.00;;;;;;;;;;5108573;28;20487;-58
2023/08/16 10:50:14;;;;;;;2.30;1.00;;;;;;;;;;5107794;28;20110;-60
2023/08/16 10:52:42;;;;;;;2.75;0.88;;;;;;;;;;5089985;28;20143;-59
2023/08/16 10:55:08;;;;;;;3.35;1.48;;;;;;;;;;5093787;28;20044;-59
2023/08/16 10:57:34;;;;;;;3.70;0.95;;;;;;;;;;5091244;28;20460;-59
2023/08/16 11:00:03;;;;;;;4.18;1.00;;;;;;;;;;5095114;28;20084;-59
2023/08/16 11:02:32;;;;;;;3.70;0.77;;;;;;;;;;5096474;28;20427;-59
2023/08/16 11:05:00;;;;;;;2.95;0.90;;;;;;;;;;5096551;28;20081;-59
2023/08/16 11:07:29;;;;;;;3.20;0.90;;;;;;;;;;5102708;28;20100;-59
2023/08/16 11:10:02;;;;;;;3.33;0.80;;;;;;;;;;5113683;27;20082;-59
2023/08/16 11:12:30;;;;;;;3.42;1.08;;;;;;;;;;5096180;28;20122;-59
2023/08/16 11:14:57;;;;;;;4.22;0.90;;;;;;;;;;5102676;28;20066;-59
2023/08/16 11:17:26;;;;;;;5.22;0.82;;;;;;;;;;5098600;28;20100;-59
2023/08/16 11:19:55;;;;;;;4.40;0.80;;;;;;;;;;5093972;28;20058;-59
2023/08/16 11:22:22;;;;;;;3.97;0.90;;;;;;;;;;5090885;28;20052;-59
2023/08/16 11:24:49;;;;;;;2.85;0.98;;;;;;;;;;5090530;28;20040;-59
2023/08/16 11:27:22;;;;;;;3.92;0.90;;;;;;;;;;5095467;28;20070;-59
2023/08/16 11:29:49;;;;;;;4.22;0.98;;;;;;;;;;5092046;28;20046;-59
2023/08/16 11:32:16;;;;;;;2.63;0.75;;;;;;;;;;5092441;28;20032;-59
2023/08/16 11:34:42;;;;;;;6.15;2.33;;;;;;;;;;5090000;28;20052;-59
2023/08/16 11:37:08;;;;;;;3.63;0.75;;;;;;;;;;5093858;28;20048;-59
2023/08/16 11:39:36;;;;;;;3.35;0.73;;;;;;;;;;5091924;28;20127;-59
2023/08/16 11:42:02;;;;;;;1.92;0.70;;;;;;;;;;5091685;28;20044;-59
2023/08/16 11:44:37;;;;;;;2.47;0.90;;;;;;;;;;5101259;28;20099;-59
2023/08/16 11:47:03;;;;;;;3.10;0.80;;;;;;;;;;5106780;28;20105;-59
2023/08/16 11:49:29;;;;;;;1.67;0.60;;;;;;;;;;5101682;28;20066;-58
2023/08/16 11:51:56;;;;;;;3.00;0.88;;;;;;;;;;5108237;28;20035;-57
2023/08/16 11:54:23;;;;;;;3.55;0.90;;;;;;;;;;5094240;28;20401;-57
2023/08/16 11:56:49;;;;;;;2.13;0.47;;;;;;;;;;5105157;28;20043;-72
2023/08/16 11:59:28;;;;;;;4.13;0.73;;;;;;;;;;5084823;28;20059;-57
2023/08/16 12:01:55;;;;;;;2.83;0.60;;;;;;;;;;5101608;28;20051;-56
2023/08/16 12:04:25;;;;;;;3.45;0.63;;;;;;;;;;5112006;28;20040;-56
2023/08/16 12:06:51;;;;;;;2.60;0.73;;;;;;;;;;5112757;28;20107;-57
2023/08/16 12:09:20;;;;;;;2.08;0.57;;;;;;;;;;5096967;28;20044;-57
2023/08/16 12:11:50;;;;;;;2.00;0.60;;;;;;;;;;5091877;28;20039;-57
2023/08/16 12:14:16;;;;;;;4.15;0.70;;;;;;;;;;5109534;28;20054;-57
2023/08/16 12:16:42;;;;;;;5.25;0.95;;;;;;;;;;5112618;28;20126;-56
2023/08/16 12:19:09;;;;;;;3.38;0.70;;;;;;;;;;5108572;28;20487;-63
2023/08/16 12:21:35;;;;;;;1.15;0.47;;;;;;;;;;5103689;28;20047;-57
2023/08/16 12:24:01;;;;;;;3.40;0.50;;;;;;;;;;5105304;28;20111;-72
2023/08/16 12:26:27;;;;;;;3.78;0.80;;;;;;;;;;5112493;28;20063;-58
2023/08/16 12:28:56;;;;;;;2.88;0.70;;;;;;;;;;5106847;28;20043;-57
2023/08/16 12:31:22;;;;;;;7.63;1.10;;;;;;;;;;5099688;28;20391;-57
2023/08/16 12:33:48;;;;;;;2.58;0.70;;;;;;;;;;5090306;28;20036;-57
2023/08/16 12:36:15;;;;;;;3.55;0.68;;;;;;;;;;5092131;28;20067;-57
2023/08/16 12:38:41;;;;;;;3.05;0.80;;;;;;;;;;5092967;28;20229;-57
2023/08/16 12:41:07;;;;;;;4.30;0.90;;;;;;;;;;5106692;28;20122;-57
2023/08/16 12:43:34;;;;;;;3.20;0.73;;;;;;;;;;5111841;28;20050;-57
2023/08/16 12:46:05;;;;;;;4.32;0.90;;;;;;;;;;5106822;28;20044;-57
2023/08/16 12:48:31;;;;;;;1.95;0.60;;;;;;;;;;5097032;28;20078;-57
2023/08/16 12:50:57;;;;;;;2.92;0.77;;;;;;;;;;5102817;28;20056;-57
2023/08/16 12:53:24;;;;;;;5.10;1.02;;;;;;;;;;5110938;28;20039;-58
2023/08/16 12:55:50;;;;;;;3.15;0.77;;;;;;;;;;5108829;28;20095;-56
2023/08/16 12:58:16;;;;;;;2.90;0.80;;;;;;;;;;5099263;28;20422;-56
2023/08/16 13:00:42;;;;;;;2.88;0.60;;;;;;;;;;5102540;28;20042;-56
2023/08/16 13:03:08;;;;;;;3.22;0.60;;;;;;;;;;5095933;28;20043;-56
2023/08/16 13:05:34;;;;;;;2.20;0.73;;;;;;;;;;5094185;28;20044;-56
2023/08/16 13:08:01;;;;;;;4.03;1.15;;;;;;;;;;5102018;28;20047;-56
2023/08/16 13:10:30;;;;;;;2.22;0.60;;;;;;;;;;5111492;28;20035;-56
2023/08/16 13:12:56;;;;;;;3.28;0.70;;;;;;;;;;5105148;28;20043;-56
2023/08/16 13:15:23;;;;;;;2.72;0.77;;;;;;;;;;5110452;28;20043;-56
2023/08/16 13:17:49;;;;;;;2.92;0.70;;;;;;;;;;5101659;28;20055;-56
2023/08/16 13:20:15;;;;;;;4.18;0.50;;;;;;;;;;5110271;28;20040;-56
2023/08/16 13:22:41;;;;;;;3.05;0.60;;;;;;;;;;5104101;28;20069;-56
2023/08/16 13:25:08;;;;;;;3.95;0.68;;;;;;;;;;5111258;28;20471;-56
2023/08/16 13:27:34;;;;;;;2.78;0.65;;;;;;;;;;5090402;28;20040;-56
2023/08/16 13:30:00;;;;;;;3.65;0.80;;;;;;;;;;5090522;28;20453;-56
2023/08/16 13:32:26;;;;;;;2.42;0.60;;;;;;;;;;5099420;28;20036;-56
2023/08/16 13:34:52;;;;;;;1.27;0.40;;;;;;;;;;5097823;28;20036;-56
2023/08/16 13:37:18;;;;;;;4.07;0.82;;;;;;;;;;5087484;28;20354;-56
2023/08/16 13:39:45;;;;;;;3.65;0.93;;;;;;;;;;5109603;28;20050;-56
2023/08/16 13:42:11;;;;;;;3.25;0.80;;;;;;;;;;5110463;28;20101;-56
2023/08/16 13:44:37;;;;;;;2.20;0.70;;;;;;;;;;5089104;28;20387;-56
2023/08/16 13:47:04;;;;;;;4.63;0.90;;;;;;;;;;5091348;28;20043;-56
2023/08/16 13:49:30;;;;;;;2.78;0.70;;;;;;;;;;5106237;28;20502;-56
2023/08/16 13:51:56;;;;;;;2.50;0.70;;;;;;;;;;5109196;28;20047;-56
2023/08/16 13:54:22;;;;;;;2.55;0.90;;;;;;;;;;5117053;28;20028;-56
2023/08/16 13:56:49;;;;;;;2.75;0.73;;;;;;;;;;5105580;28;20429;-56
2023/08/16 13:59:15;;;;;;;4.15;0.73;;;;;;;;;;5102426;28;20115;-56
2023/08/16 14:01:41;;;;;;;3.22;0.77;;;;;;;;;;5108160;28;20101;-56
2023/08/16 14:04:07;;;;;;;2.70;0.63;;;;;;;;;;5099080;28;20040;-56
2023/08/16 14:06:33;;;;;;;3.70;0.55;;;;;;;;;;5098801;28;20051;-56
2023/08/16 14:09:00;;;;;;;2.88;0.80;;;;;;;;;;5085027;28;20043;-56
2023/08/16 14:11:26;;;;;;;2.95;0.68;;;;;;;;;;5100895;28;20040;-56
2023/08/16 14:13:55;;;;;;;4.80;1.13;;;;;;;;;;5092818;28;20040;-66
2023/08/16 14:16:21;;;;;;;3.65;0.93;;;;;;;;;;5101700;28;20066;-57
2023/08/16 14:18:47;;;;;;;3.30;0.60;;;;;;;;;;5108564;28;20043;-56
2023/08/16 14:21:13;;;;;;;3.92;1.27;;;;;;;;;;5091696;28;20059;-56
2023/08/16 14:23:40;;;;;;;3.08;0.77;;;;;;;;;;5095548;28;20517;-56
2023/08/16 14:26:07;;;;;;;5.38;1.38;;;;;;;;;;5096447;28;20067;-57
2023/08/16 14:28:33;;;;;;;4.38;0.80;;;;;;;;;;5103608;28;20507;-67
2023/08/16 14:30:59;;;;;;;4.20;1.10;;;;;;;;;;5095787;28;20390;-57
2023/08/16 14:33:26;;;;;;;2.35;0.70;;;;;;;;;;5097848;28;20085;-57
2023/08/16 14:35:52;;;;;;;3.10;0.70;;;;;;;;;;5107756;28;20457;-57
2023/08/16 14:38:18;;;;;;;4.43;0.93;;;;;;;;;;5092652;28;20052;-57